Time;durP1;ratioP1;P1;durP2;ratioP2;P2;SDS_P1;SDS_P2;PMS_P1;PMS_P2;Temp;Humidity;BMP_temperature;BMP_pressure;BME280_temperature;BME280_humidity;BME280_pressure;Samples;Min_cycle;Max_cycle;Signal;HPM_P1;HPM_P2
2021/10/15 07:26:46;;;;;;;11.00;9.43;;;;;;;;;;4968669;28;20791;-50
2021/10/15 07:29:12;;;;;;;10.93;9.55;;;;;;;;;;4968142;28;20513;-55
2021/10/15 07:31:38;;;;;;;13.27;9.17;;;;;;;;;;4968704;28;20419;-49
2021/10/15 07:34:05;;;;;;;12.73;9.38;;;;;;;;;;4969252;28;20423;-49
2021/10/15 07:36:31;;;;;;;11.35;9.40;;;;;;;;;;4969198;28;20487;-50
2021/10/15 07:38:57;;;;;;;11.05;8.73;;;;;;;;;;4970583;28;20484;-50
2021/10/15 07:41:24;;;;;;;12.70;8.63;;;;;;;;;;4973638;28;20444;-49
2021/10/15 07:43:51;;;;;;;12.35;9.00;;;;;;;;;;4982400;28;20481;-50
2021/10/15 07:46:20;;;;;;;12.00;8.68;;;;;;;;;;4971498;28;20407;-48
2021/10/15 07:48:46;;;;;;;12.30;8.88;;;;;;;;;;4969202;28;20420;-60
2021/10/15 07:51:13;;;;;;;10.95;8.30;;;;;;;;;;4981138;28;20399;-57
2021/10/15 07:53:39;;;;;;;11.25;8.52;;;;;;;;;;4977322;28;20909;-58
2021/10/15 07:56:06;;;;;;;10.48;8.38;;;;;;;;;;4975023;28;20517;-58
2021/10/15 07:58:32;;;;;;;9.77;8.30;;;;;;;;;;4965311;28;20888;-60
2021/10/15 08:01:00;;;;;;;10.67;7.93;;;;;;;;;;4978673;28;20406;-58
2021/10/15 08:03:26;;;;;;;9.38;8.15;;;;;;;;;;4977753;28;20886;-58
2021/10/15 08:05:52;;;;;;;9.95;7.93;;;;;;;;;;4962453;28;20470;-56
2021/10/15 08:08:18;;;;;;;11.63;8.40;;;;;;;;;;4968692;28;20404;-60
2021/10/15 08:10:44;;;;;;;8.65;7.45;;;;;;;;;;4959417;28;20393;-59
2021/10/15 08:13:13;;;;;;;9.40;8.13;;;;;;;;;;4970067;28;20396;-58
2021/10/15 08:15:39;;;;;;;11.00;8.35;;;;;;;;;;4955280;28;20805;-58
2021/10/15 08:18:05;;;;;;;9.15;7.63;;;;;;;;;;4972870;28;20494;-60
2021/10/15 08:20:31;;;;;;;10.03;7.80;;;;;;;;;;4974508;28;20471;-59
2021/10/15 08:22:57;;;;;;;10.05;7.97;;;;;;;;;;4980224;28;20395;-60
2021/10/15 08:25:23;;;;;;;10.23;7.70;;;;;;;;;;4976340;28;20911;-58
2021/10/15 08:27:50;;;;;;;10.02;7.35;;;;;;;;;;4977592;28;20409;-57
2021/10/15 08:30:16;;;;;;;8.82;7.80;;;;;;;;;;4997119;28;20751;-58
2021/10/15 08:32:42;;;;;;;9.32;8.02;;;;;;;;;;4988198;28;20477;-59
2021/10/15 08:35:10;;;;;;;10.55;8.20;;;;;;;;;;4993900;28;20962;-63
2021/10/15 08:37:37;;;;;;;9.55;7.18;;;;;;;;;;4980710;28;20403;-59
2021/10/15 08:40:03;;;;;;;9.52;7.32;;;;;;;;;;4991838;28;20406;-59
2021/10/15 08:42:29;;;;;;;10.07;7.38;;;;;;;;;;4981061;28;20397;-60
2021/10/15 08:44:55;;;;;;;9.00;7.60;;;;;;;;;;5000203;28;20396;-59
2021/10/15 08:47:22;;;;;;;9.27;7.38;;;;;;;;;;4999153;28;20466;-60
2021/10/15 08:49:48;;;;;;;8.57;6.97;;;;;;;;;;5002882;28;20471;-59
2021/10/15 08:52:14;;;;;;;11.85;7.78;;;;;;;;;;4991049;28;20406;-60
2021/10/15 08:54:43;;;;;;;10.13;7.20;;;;;;;;;;4993849;28;20398;-61
2021/10/15 08:57:18;;;;;;;10.85;7.28;;;;;;;;;;4986177;28;20529;-59
2021/10/15 08:59:50;;;;;;;8.90;7.00;;;;;;;;;;4989072;28;20374;-60
2021/10/15 09:02:17;;;;;;;9.00;7.40;;;;;;;;;;4996882;28;20411;-59
2021/10/15 09:04:48;;;;;;;8.30;6.83;;;;;;;;;;5002117;28;20839;-58
2021/10/15 09:07:15;;;;;;;8.53;7.10;;;;;;;;;;5001272;28;20491;-57
2021/10/15 09:09:41;;;;;;;9.85;7.03;;;;;;;;;;4980114;28;20402;-50
2021/10/15 09:12:09;;;;;;;7.95;6.70;;;;;;;;;;4978336;28;20487;-55
2021/10/15 09:14:37;;;;;;;9.40;6.90;;;;;;;;;;4981901;28;20833;-59
2021/10/15 09:17:10;;;;;;;8.45;7.03;;;;;;;;;;4996489;28;20424;-59
2021/10/15 09:19:40;;;;;;;8.70;7.13;;;;;;;;;;4997927;28;20427;-59
2021/10/15 09:22:12;;;;;;;9.82;7.07;;;;;;;;;;4995402;28;20419;-59
2021/10/15 09:24:38;;;;;;;8.20;6.57;;;;;;;;;;5006166;28;20932;-59
2021/10/15 09:27:32;;;;;;;9.00;6.97;;;;;;;;;;5003517;28;20408;-61
2021/10/15 09:29:58;;;;;;;8.38;6.65;;;;;;;;;;4990594;28;20495;-57
2021/10/15 09:32:25;;;;;;;8.13;6.93;;;;;;;;;;5004386;28;20393;-55
2021/10/15 09:34:51;;;;;;;8.00;6.90;;;;;;;;;;4991409;28;20400;-57
2021/10/15 09:37:23;;;;;;;7.80;6.38;;;;;;;;;;5002125;28;20504;-57
2021/10/15 09:39:49;;;;;;;8.20;6.50;;;;;;;;;;4991594;28;20702;-59
2021/10/15 09:42:16;;;;;;;8.52;6.60;;;;;;;;;;4973979;28;20485;-59
2021/10/15 09:44:42;;;;;;;8.77;6.30;;;;;;;;;;5000872;28;20396;-57
2021/10/15 09:47:21;;;;;;;8.43;6.50;;;;;;;;;;4994640;28;20493;-58
2021/10/15 09:49:51;;;;;;;7.63;6.20;;;;;;;;;;4987411;28;20409;-57
2021/10/15 09:52:24;;;;;;;10.70;6.60;;;;;;;;;;4996214;28;20396;-58
2021/10/15 09:55:01;;;;;;;8.30;6.50;;;;;;;;;;4978303;28;20771;-56
2021/10/15 09:57:48;;;;;;;8.52;6.63;;;;;;;;;;4969538;28;21054;-57
2021/10/15 10:00:27;;;;;;;7.88;6.28;;;;;;;;;;4972985;28;20489;-58
2021/10/15 10:02:53;;;;;;;9.00;6.70;;;;;;;;;;4990073;28;20475;-58
2021/10/15 10:05:20;;;;;;;7.50;6.40;;;;;;;;;;4994401;28;20398;-57
2021/10/15 10:07:47;;;;;;;9.07;6.80;;;;;;;;;;4983266;28;20407;-58
2021/10/15 10:10:15;;;;;;;8.60;6.78;;;;;;;;;;5002318;28;20392;-58
2021/10/15 10:12:45;;;;;;;8.13;6.20;;;;;;;;;;4988334;28;20400;-59
2021/10/15 10:15:13;;;;;;;8.05;6.35;;;;;;;;;;4975577;28;20450;-54
2021/10/15 10:17:57;;;;;;;6.93;5.90;;;;;;;;;;4970278;28;20415;-57
2021/10/15 10:20:28;;;;;;;7.93;6.32;;;;;;;;;;4991929;28;20384;-58
2021/10/15 10:22:59;;;;;;;7.18;6.13;;;;;;;;;;4991054;28;20394;-59
2021/10/15 10:25:25;;;;;;;8.15;6.25;;;;;;;;;;4994941;28;20489;-59
2021/10/15 10:27:53;;;;;;;7.97;6.00;;;;;;;;;;4994034;28;20746;-53
2021/10/15 10:30:34;;;;;;;6.72;5.78;;;;;;;;;;5007435;28;20455;-50
2021/10/15 10:33:02;;;;;;;7.05;5.88;;;;;;;;;;5004609;28;20412;-53
2021/10/15 10:35:28;;;;;;;7.30;5.75;;;;;;;;;;4994750;28;20505;-52
2021/10/15 10:38:13;;;;;;;7.47;6.37;;;;;;;;;;5000618;28;20941;-54
2021/10/15 10:40:59;;;;;;;7.68;5.90;;;;;;;;;;4995607;28;20455;-52
2021/10/15 10:43:25;;;;;;;7.72;5.90;;;;;;;;;;4986039;28;20402;-51
2021/10/15 10:46:09;;;;;;;6.60;5.68;;;;;;;;;;4988674;28;20660;-58
2021/10/15 10:48:55;;;;;;;6.97;5.53;;;;;;;;;;4986829;28;20413;-49
2021/10/15 10:51:21;;;;;;;6.93;5.53;;;;;;;;;;4990044;28;20445;-54
2021/10/15 10:54:06;;;;;;;6.37;5.50;;;;;;;;;;4990333;28;20585;-55
2021/10/15 10:56:37;;;;;;;9.32;5.55;;;;;;;;;;4995051;28;20573;-54
2021/10/15 10:59:22;;;;;;;7.10;5.40;;;;;;;;;;4989724;28;20482;-51
2021/10/15 11:01:58;;;;;;;7.10;5.22;;;;;;;;;;4994899;28;20601;-52
2021/10/15 11:04:30;;;;;;;8.57;5.30;;;;;;;;;;4995125;28;20469;-54
2021/10/15 11:06:57;;;;;;;7.70;4.88;;;;;;;;;;5001253;28;20385;-51
2021/10/15 11:09:36;;;;;;;8.23;5.57;;;;;;;;;;5018617;28;20415;-53
2021/10/15 11:12:03;;;;;;;9.93;5.33;;;;;;;;;;4991624;28;20406;-51
2021/10/15 11:14:55;;;;;;;7.00;5.20;;;;;;;;;;5005908;28;20421;-52
2021/10/15 11:17:27;;;;;;;6.60;5.00;;;;;;;;;;4983927;28;21002;-54
2021/10/15 11:20:26;;;;;;;7.57;4.93;;;;;;;;;;4992759;28;20767;-52
2021/10/15 11:23:03;;;;;;;7.13;5.00;;;;;;;;;;4924736;28;20598;-52
2021/10/15 11:25:31;;;;;;;7.03;5.10;;;;;;;;;;4992507;28;20447;-54
2021/10/15 11:27:58;;;;;;;7.23;5.10;;;;;;;;;;4990185;28;20402;-52
2021/10/15 11:30:27;;;;;;;8.43;5.22;;;;;;;;;;4991628;28;20375;-53
2021/10/15 11:32:54;;;;;;;6.22;4.55;;;;;;;;;;4990043;28;20784;-52
2021/10/15 11:35:23;;;;;;;6.05;4.80;;;;;;;;;;4990007;28;20478;-53
2021/10/15 11:37:52;;;;;;;6.03;4.88;;;;;;;;;;4989565;28;20441;-52
2021/10/15 11:40:22;;;;;;;8.18;5.18;;;;;;;;;;4989110;28;20522;-55
2021/10/15 11:42:49;;;;;;;6.32;4.68;;;;;;;;;;4982186;28;20428;-53
2021/10/15 11:45:22;;;;;;;11.68;5.18;;;;;;;;;;4990576;28;20404;-48
2021/10/15 11:48:02;;;;;;;6.88;4.95;;;;;;;;;;4999487;28;20449;-48
2021/10/15 11:50:36;;;;;;;6.95;4.60;;;;;;;;;;5003630;28;20403;-50
2021/10/15 11:53:02;;;;;;;6.93;4.82;;;;;;;;;;4997628;28;21990;-47
2021/10/15 11:55:36;;;;;;;7.65;4.88;;;;;;;;;;4991491;28;20424;-47
2021/10/15 11:58:21;;;;;;;7.03;4.80;;;;;;;;;;4979727;28;20407;-49
2021/10/15 12:00:54;;;;;;;5.40;4.50;;;;;;;;;;5000754;28;20469;-48
2021/10/15 12:03:40;;;;;;;7.38;4.50;;;;;;;;;;5002954;28;20465;-47
2021/10/15 12:06:18;;;;;;;6.55;4.65;;;;;;;;;;4990902;28;20375;-47
2021/10/15 12:08:45;;;;;;;6.33;4.60;;;;;;;;;;5003658;28;20413;-48
2021/10/15 12:11:16;;;;;;;6.32;4.60;;;;;;;;;;4992332;28;20389;-48
2021/10/15 12:13:43;;;;;;;6.47;4.60;;;;;;;;;;4981162;28;20399;-47
2021/10/15 12:16:21;;;;;;;7.13;4.38;;;;;;;;;;4980762;28;20524;-48
2021/10/15 12:18:55;;;;;;;5.97;4.25;;;;;;;;;;4991510;28;20398;-47
2021/10/15 12:21:21;;;;;;;6.00;4.30;;;;;;;;;;5002683;28;20398;-49
2021/10/15 12:23:51;;;;;;;5.60;4.40;;;;;;;;;;4988427;28;20410;-47
2021/10/15 12:26:18;;;;;;;6.15;4.20;;;;;;;;;;4989243;28;20486;-48
2021/10/15 12:28:45;;;;;;;5.50;4.20;;;;;;;;;;4972772;28;20394;-48
2021/10/15 12:31:27;;;;;;;5.63;4.20;;;;;;;;;;5002943;28;20405;-47
2021/10/15 12:34:00;;;;;;;6.07;4.43;;;;;;;;;;4991879;28;20389;-50
2021/10/15 12:36:26;;;;;;;5.07;4.22;;;;;;;;;;4960310;28;20422;-52
2021/10/15 12:38:52;;;;;;;4.80;4.10;;;;;;;;;;5000445;28;20373;-50
2021/10/15 12:41:27;;;;;;;5.30;4.15;;;;;;;;;;4996275;28;20453;-53
2021/10/15 12:43:56;;;;;;;6.25;4.40;;;;;;;;;;4988912;28;20390;-52
2021/10/15 12:46:22;;;;;;;6.40;4.18;;;;;;;;;;4989068;28;20960;-49
2021/10/15 12:49:01;;;;;;;5.20;4.00;;;;;;;;;;4977837;28;20410;-49
2021/10/15 12:51:36;;;;;;;5.45;4.20;;;;;;;;;;4990049;28;20465;-52
2021/10/15 12:54:02;;;;;;;5.93;4.30;;;;;;;;;;5008698;28;20389;-50
2021/10/15 12:56:31;;;;;;;6.90;4.25;;;;;;;;;;4987573;28;20417;-48
2021/10/15 12:58:59;;;;;;;7.13;4.07;;;;;;;;;;4989717;28;20379;-47
2021/10/15 13:01:43;;;;;;;5.35;3.97;;;;;;;;;;4990430;28;20385;-48
2021/10/15 13:04:10;;;;;;;5.35;4.00;;;;;;;;;;5008796;28;20376;-47
2021/10/15 13:06:36;;;;;;;6.43;4.20;;;;;;;;;;4991240;28;20853;-48
2021/10/15 13:09:04;;;;;;;6.05;3.72;;;;;;;;;;4998063;28;20373;-48
2021/10/15 13:11:31;;;;;;;6.18;3.70;;;;;;;;;;5004111;28;20769;-48
2021/10/15 13:13:58;;;;;;;5.65;3.90;;;;;;;;;;4990609;28;20844;-49
2021/10/15 13:16:24;;;;;;;5.43;3.78;;;;;;;;;;4991800;28;20426;-50
2021/10/15 13:18:50;;;;;;;6.68;3.90;;;;;;;;;;4988757;28;20385;-56
2021/10/15 13:21:17;;;;;;;4.78;3.75;;;;;;;;;;4995205;28;20401;-52
2021/10/15 13:23:43;;;;;;;5.68;3.88;;;;;;;;;;4988129;28;20377;-52
2021/10/15 13:26:09;;;;;;;4.55;3.50;;;;;;;;;;4976183;28;20953;-53
2021/10/15 13:28:35;;;;;;;5.68;3.47;;;;;;;;;;5000819;28;20429;-48
2021/10/15 13:31:01;;;;;;;5.75;3.58;;;;;;;;;;4991801;28;20550;-51
2021/10/15 13:33:28;;;;;;;4.93;3.45;;;;;;;;;;4984255;28;20369;-50
2021/10/15 13:35:57;;;;;;;5.30;3.60;;;;;;;;;;5006525;28;20420;-55
2021/10/15 13:38:26;;;;;;;4.95;3.53;;;;;;;;;;4983358;28;20457;-53
2021/10/15 13:41:15;;;;;;;4.65;3.28;;;;;;;;;;4978214;28;20408;-58
2021/10/15 13:51:56;;;;;;;4.68;3.38;;;;;;;;;;5007434;28;20369;-52
2021/10/15 13:54:22;;;;;;;3.90;3.00;;;;;;;;;;4980115;28;20404;-56
2021/10/15 13:56:48;;;;;;;4.90;3.13;;;;;;;;;;4998055;28;20421;-52
2021/10/15 13:59:19;;;;;;;4.35;3.13;;;;;;;;;;5001173;28;20463;-52
2021/10/15 14:01:54;;;;;;;4.47;2.83;;;;;;;;;;4988897;28;20425;-55
2021/10/15 14:07:08;;;;;;;4.00;3.05;;;;;;;;;;5002324;28;20439;-50
2021/10/15 14:09:35;;;;;;;4.57;3.30;;;;;;;;;;4984020;28;20507;-51
2021/10/15 14:12:02;;;;;;;5.10;2.80;;;;;;;;;;4970845;28;20413;-50
2021/10/15 14:14:28;;;;;;;4.28;2.83;;;;;;;;;;4972419;28;20414;-55
2021/10/15 14:16:54;;;;;;;4.07;3.13;;;;;;;;;;4985452;28;20552;-58
2021/10/15 14:19:20;;;;;;;3.38;2.65;;;;;;;;;;4996804;28;20486;-58
2021/10/15 14:21:46;;;;;;;4.53;3.00;;;;;;;;;;5001872;28;20428;-51
2021/10/15 14:24:12;;;;;;;3.60;2.70;;;;;;;;;;4993073;28;20457;-47
2021/10/15 14:26:38;;;;;;;4.25;2.90;;;;;;;;;;4964778;28;20391;-55
2021/10/15 14:29:04;;;;;;;3.53;2.70;;;;;;;;;;4991357;28;20396;-49
2021/10/15 14:31:31;;;;;;;4.55;2.90;;;;;;;;;;4997534;28;20437;-56
2021/10/15 14:33:58;;;;;;;3.63;2.60;;;;;;;;;;4979119;28;20871;-58
2021/10/15 14:36:24;;;;;;;5.30;3.10;;;;;;;;;;4979811;28;20419;-56
2021/10/15 14:38:50;;;;;;;4.45;2.92;;;;;;;;;;4989335;28;20389;-48
2021/10/15 14:41:17;;;;;;;3.83;2.90;;;;;;;;;;4971859;28;20406;-47
2021/10/15 14:43:43;;;;;;;4.10;3.30;;;;;;;;;;4988594;28;20728;-47
2021/10/15 14:46:09;;;;;;;4.55;3.22;;;;;;;;;;4988560;28;20407;-52
2021/10/15 14:48:36;;;;;;;4.15;3.22;;;;;;;;;;4987887;28;20769;-48
2021/10/15 14:51:02;;;;;;;4.53;3.15;;;;;;;;;;4986740;28;20449;-53
2021/10/15 14:53:28;;;;;;;4.85;3.50;;;;;;;;;;4990378;28;20406;-51
2021/10/15 14:55:54;;;;;;;5.68;3.75;;;;;;;;;;4990189;28;20429;-48
2021/10/15 14:58:20;;;;;;;4.70;3.45;;;;;;;;;;4986907;28;20728;-47
2021/10/15 15:00:46;;;;;;;4.93;3.80;;;;;;;;;;4995279;28;20564;-49
2021/10/15 15:03:12;;;;;;;6.25;3.70;;;;;;;;;;5003486;28;20398;-46
2021/10/15 15:05:39;;;;;;;5.35;3.60;;;;;;;;;;4979595;28;20887;-61
2021/10/15 15:08:07;;;;;;;4.63;3.47;;;;;;;;;;5006155;28;20411;-52
2021/10/15 15:10:33;;;;;;;7.20;3.97;;;;;;;;;;4991402;28;20379;-46
2021/10/15 15:13:00;;;;;;;4.65;3.90;;;;;;;;;;4971663;28;20391;-51
2021/10/15 15:15:26;;;;;;;4.82;3.70;;;;;;;;;;4989405;28;20478;-52
2021/10/15 15:17:52;;;;;;;5.60;3.83;;;;;;;;;;4990137;28;20833;-49
2021/10/15 15:20:20;;;;;;;5.28;3.70;;;;;;;;;;4998659;28;20398;-46
2021/10/15 15:22:46;;;;;;;5.78;4.18;;;;;;;;;;4987390;28;20394;-50
2021/10/15 15:25:12;;;;;;;5.20;3.63;;;;;;;;;;5000495;28;20405;-48
2021/10/15 15:27:38;;;;;;;5.15;4.10;;;;;;;;;;5008613;28;21340;-48
2021/10/15 15:30:06;;;;;;;6.15;3.92;;;;;;;;;;5006470;28;20767;-47
2021/10/15 15:32:33;;;;;;;5.47;4.20;;;;;;;;;;4990330;28;20721;-48
2021/10/15 15:34:59;;;;;;;5.63;4.30;;;;;;;;;;4971065;28;20862;-48
2021/10/15 15:37:25;;;;;;;6.00;4.47;;;;;;;;;;5006524;28;20423;-51
2021/10/15 15:39:51;;;;;;;7.53;5.00;;;;;;;;;;4982953;28;20383;-51
2021/10/15 15:42:17;;;;;;;6.70;4.70;;;;;;;;;;4989591;28;20545;-49
2021/10/15 15:44:47;;;;;;;6.95;5.00;;;;;;;;;;4987044;28;20398;-46
2021/10/15 15:47:20;;;;;;;7.47;5.57;;;;;;;;;;4996518;28;20432;-49
2021/10/15 15:49:46;;;;;;;6.18;5.57;;;;;;;;;;5000141;28;20389;-53
2021/10/15 15:52:12;;;;;;;8.07;6.38;;;;;;;;;;5004212;28;20457;-49
2021/10/15 15:54:38;;;;;;;9.80;6.43;;;;;;;;;;5005217;28;20435;-48
2021/10/15 15:57:06;;;;;;;8.35;6.28;;;;;;;;;;4976466;28;20787;-48
2021/10/15 15:59:32;;;;;;;12.25;7.30;;;;;;;;;;4986528;28;20708;-48
2021/10/15 16:01:58;;;;;;;12.13;7.30;;;;;;;;;;5000498;28;20822;-46
2021/10/15 16:04:24;;;;;;;9.98;6.93;;;;;;;;;;4996890;28;20444;-48
2021/10/15 16:06:50;;;;;;;11.30;7.32;;;;;;;;;;4994027;28;20380;-49
2021/10/15 16:09:16;;;;;;;9.00;6.68;;;;;;;;;;4986541;28;20424;-48
2021/10/15 16:11:43;;;;;;;9.40;6.70;;;;;;;;;;5001811;28;20887;-50
2021/10/15 16:14:09;;;;;;;8.77;6.78;;;;;;;;;;4991590;28;20784;-55
2021/10/15 16:16:35;;;;;;;8.07;6.10;;;;;;;;;;4995988;28;20449;-53
2021/10/15 16:19:02;;;;;;;8.80;6.47;;;;;;;;;;4971015;28;20767;-51
2021/10/15 16:21:28;;;;;;;7.68;6.10;;;;;;;;;;4998835;28;20392;-48
2021/10/15 16:23:55;;;;;;;6.97;5.88;;;;;;;;;;4984555;28;20453;-48
2021/10/15 16:26:22;;;;;;;8.60;5.60;;;;;;;;;;5007444;28;20409;-50
2021/10/15 16:28:48;;;;;;;7.82;5.38;;;;;;;;;;4994121;28;20438;-47
2021/10/15 16:31:14;;;;;;;6.85;5.60;;;;;;;;;;4993113;28;20421;-49
2021/10/15 16:33:41;;;;;;;7.68;5.82;;;;;;;;;;4984570;28;20446;-49
2021/10/15 16:36:09;;;;;;;10.52;6.07;;;;;;;;;;4990157;28;20510;-49
2021/10/15 16:38:36;;;;;;;8.93;6.22;;;;;;;;;;4976871;28;21017;-48
2021/10/15 16:41:02;;;;;;;8.10;6.30;;;;;;;;;;4983606;28;20398;-47
2021/10/15 16:43:29;;;;;;;9.35;6.45;;;;;;;;;;4967145;28;20393;-47
2021/10/15 16:45:55;;;;;;;7.85;6.32;;;;;;;;;;5005427;28;20397;-52
2021/10/15 16:48:21;;;;;;;8.98;6.55;;;;;;;;;;4993930;28;20391;-51
2021/10/15 16:50:47;;;;;;;8.32;6.70;;;;;;;;;;4993229;28;20451;-50
2021/10/15 16:53:13;;;;;;;8.23;6.53;;;;;;;;;;4982874;28;20396;-48
2021/10/15 16:55:39;;;;;;;8.13;7.00;;;;;;;;;;4971575;28;20429;-48
2021/10/15 16:58:07;;;;;;;8.00;7.03;;;;;;;;;;4988006;28;20482;-49
2021/10/15 17:00:33;;;;;;;8.60;7.38;;;;;;;;;;4970458;28;20387;-51
2021/10/15 17:02:59;;;;;;;8.20;6.70;;;;;;;;;;4986207;28;20956;-48
2021/10/15 17:05:26;;;;;;;9.70;7.45;;;;;;;;;;4986991;28;20375;-48
2021/10/15 17:07:52;;;;;;;8.25;7.10;;;;;;;;;;4997762;28;20390;-46
2021/10/15 17:10:18;;;;;;;9.93;7.70;;;;;;;;;;5007065;28;20391;-48
2021/10/15 17:12:45;;;;;;;9.57;7.60;;;;;;;;;;4999534;28;20385;-51
2021/10/15 17:15:11;;;;;;;9.07;7.73;;;;;;;;;;5007108;28;20384;-45
2021/10/15 17:17:37;;;;;;;10.90;7.90;;;;;;;;;;5000361;28;20927;-49
2021/10/15 17:20:03;;;;;;;9.68;7.75;;;;;;;;;;5002266;28;20393;-49
2021/10/15 17:22:29;;;;;;;12.40;8.65;;;;;;;;;;4976101;28;20400;-52
2021/10/15 17:24:55;;;;;;;10.00;8.38;;;;;;;;;;4987946;28;20489;-51
2021/10/15 17:27:21;;;;;;;13.82;9.48;;;;;;;;;;4997294;28;20414;-51
2021/10/15 17:29:47;;;;;;;11.68;9.10;;;;;;;;;;5002362;28;20365;-48
2021/10/15 17:32:13;;;;;;;10.80;9.20;;;;;;;;;;5000511;28;20851;-47
2021/10/15 17:34:40;;;;;;;12.43;9.25;;;;;;;;;;4988340;28;20438;-47
2021/10/15 17:37:06;;;;;;;12.43;9.55;;;;;;;;;;4987455;28;20423;-49
2021/10/15 17:39:33;;;;;;;14.00;10.10;;;;;;;;;;4982121;28;20387;-49
2021/10/15 17:41:59;;;;;;;12.68;9.95;;;;;;;;;;4986579;28;20465;-47
2021/10/15 17:44:28;;;;;;;14.73;10.77;;;;;;;;;;4984173;28;20565;-48
2021/10/15 17:46:54;;;;;;;13.48;11.50;;;;;;;;;;4971249;28;20408;-51
2021/10/15 17:49:22;;;;;;;15.13;11.85;;;;;;;;;;4984863;28;20541;-47
2021/10/15 17:51:49;;;;;;;14.65;11.45;;;;;;;;;;4986993;28;20394;-50
2021/10/15 17:54:15;;;;;;;13.70;11.50;;;;;;;;;;4987345;28;20405;-50
2021/10/15 17:56:41;;;;;;;14.07;11.50;;;;;;;;;;5004778;28;20412;-54
2021/10/15 17:59:07;;;;;;;15.10;11.45;;;;;;;;;;5000738;28;20412;-50
2021/10/15 18:01:33;;;;;;;14.75;11.63;;;;;;;;;;4994026;28;20394;-49
2021/10/15 18:03:59;;;;;;;13.70;11.70;;;;;;;;;;4988260;28;20387;-46
2021/10/15 18:06:25;;;;;;;15.17;12.00;;;;;;;;;;4985798;28;20414;-51
2021/10/15 18:08:51;;;;;;;15.48;11.88;;;;;;;;;;4986492;28;20391;-50
2021/10/15 18:11:18;;;;;;;13.93;11.52;;;;;;;;;;4988632;28;20410;-49
2021/10/15 18:13:44;;;;;;;15.45;11.50;;;;;;;;;;4986854;28;20860;-49
2021/10/15 18:16:10;;;;;;;14.40;11.48;;;;;;;;;;4988329;28;20927;-51
2021/10/15 18:18:36;;;;;;;14.13;11.98;;;;;;;;;;4987789;28;20399;-47
2021/10/15 18:21:03;;;;;;;15.13;12.43;;;;;;;;;;4988530;28;20514;-48
2021/10/15 18:23:29;;;;;;;15.67;13.43;;;;;;;;;;4988389;28;20383;-51
2021/10/15 18:25:55;;;;;;;15.52;13.38;;;;;;;;;;4992095;28;20414;-52
2021/10/15 18:28:21;;;;;;;16.00;13.68;;;;;;;;;;4991876;28;20709;-48
2021/10/15 18:30:47;;;;;;;14.60;13.10;;;;;;;;;;4990493;28;20401;-48
2021/10/15 18:33:13;;;;;;;13.60;12.15;;;;;;;;;;4992308;28;20808;-50
2021/10/15 18:35:39;;;;;;;13.82;11.88;;;;;;;;;;4992082;28;20445;-50
2021/10/15 18:38:06;;;;;;;14.00;12.50;;;;;;;;;;4974984;28;20425;-50
2021/10/15 18:40:32;;;;;;;13.70;12.33;;;;;;;;;;4988184;28;20571;-47
2021/10/15 18:42:58;;;;;;;15.90;13.80;;;;;;;;;;4988660;28;20394;-48
2021/10/15 18:45:24;;;;;;;16.77;14.38;;;;;;;;;;4990181;28;20379;-53
2021/10/15 18:47:51;;;;;;;16.20;14.32;;;;;;;;;;4991345;28;20402;-51
2021/10/15 18:50:17;;;;;;;16.17;14.45;;;;;;;;;;4989624;28;20387;-48
2021/10/15 18:52:43;;;;;;;17.40;14.70;;;;;;;;;;4991619;28;20386;-50
2021/10/15 18:55:11;;;;;;;16.80;14.88;;;;;;;;;;4991909;28;20381;-52
2021/10/15 18:57:37;;;;;;;16.17;14.48;;;;;;;;;;4988196;28;20864;-48
2021/10/15 19:00:04;;;;;;;16.17;14.48;;;;;;;;;;4990646;28;21058;-48
2021/10/15 19:02:30;;;;;;;17.30;15.30;;;;;;;;;;4982761;28;20378;-49
2021/10/15 19:04:56;;;;;;;18.10;15.27;;;;;;;;;;4989533;28;20453;-50
2021/10/15 19:07:22;;;;;;;18.90;16.08;;;;;;;;;;4990711;28;20398;-48
2021/10/15 19:09:49;;;;;;;19.15;16.75;;;;;;;;;;5000097;28;20814;-50
2021/10/15 19:12:15;;;;;;;18.75;16.85;;;;;;;;;;4977420;28;20418;-47
2021/10/15 19:14:41;;;;;;;18.83;16.67;;;;;;;;;;4991341;28;20466;-49
2021/10/15 19:17:10;;;;;;;18.38;16.17;;;;;;;;;;4991224;28;21717;-53
2021/10/15 19:19:37;;;;;;;18.15;16.15;;;;;;;;;;4979420;28;20387;-48
2021/10/15 19:22:04;;;;;;;19.63;17.10;;;;;;;;;;4989401;28;20445;-46
2021/10/15 19:24:32;;;;;;;19.35;17.25;;;;;;;;;;4988973;28;20510;-49
2021/10/15 19:26:58;;;;;;;19.45;17.25;;;;;;;;;;4990668;28;20461;-50
2021/10/15 19:29:24;;;;;;;19.50;17.40;;;;;;;;;;5005089;28;20474;-49
2021/10/15 19:31:51;;;;;;;19.73;17.52;;;;;;;;;;4991338;28;20441;-48
2021/10/15 19:34:17;;;;;;;20.63;18.40;;;;;;;;;;4991085;28;20402;-47
2021/10/15 19:36:44;;;;;;;23.87;19.70;;;;;;;;;;4989724;28;20415;-46
2021/10/15 19:39:10;;;;;;;24.45;21.10;;;;;;;;;;4992048;28;20465;-51
2021/10/15 19:41:36;;;;;;;30.58;24.17;;;;;;;;;;4993181;28;20409;-48
2021/10/15 19:44:03;;;;;;;33.30;24.95;;;;;;;;;;5000712;28;20724;-49
2021/10/15 19:46:31;;;;;;;33.55;24.42;;;;;;;;;;4984094;28;20469;-50
2021/10/15 19:48:59;;;;;;;34.15;25.58;;;;;;;;;;5003126;28;20846;-46
2021/10/15 19:51:25;;;;;;;35.10;27.38;;;;;;;;;;4986354;28;20945;-47
2021/10/15 19:53:52;;;;;;;35.05;26.85;;;;;;;;;;4987768;28;20878;-49
2021/10/15 19:56:18;;;;;;;33.95;27.98;;;;;;;;;;4987889;28;20449;-49
2021/10/15 19:58:44;;;;;;;31.50;25.60;;;;;;;;;;4989736;28;20452;-47
2021/10/15 20:01:10;;;;;;;28.63;24.52;;;;;;;;;;4972273;28;20859;-51
2021/10/15 20:03:37;;;;;;;27.35;24.42;;;;;;;;;;4987761;28;20403;-48
2021/10/15 20:06:03;;;;;;;27.52;23.85;;;;;;;;;;4987768;28;20422;-48
2021/10/15 20:08:29;;;;;;;25.52;22.67;;;;;;;;;;4971733;28;20380;-50
2021/10/15 20:10:55;;;;;;;25.42;22.00;;;;;;;;;;4971504;28;20397;-48
2021/10/15 20:13:24;;;;;;;24.52;21.90;;;;;;;;;;4988326;28;20422;-49
2021/10/15 20:15:50;;;;;;;24.17;21.52;;;;;;;;;;4989194;28;20493;-47
2021/10/15 20:18:17;;;;;;;24.73;21.02;;;;;;;;;;4990145;28;20892;-47
2021/10/15 20:20:43;;;;;;;23.80;20.38;;;;;;;;;;4988369;28;20458;-48
2021/10/15 20:23:14;;;;;;;22.80;19.38;;;;;;;;;;4989154;28;20465;-46
2021/10/15 20:25:41;;;;;;;23.00;19.37;;;;;;;;;;4988551;28;20426;-47
2021/10/15 20:28:07;;;;;;;20.92;18.73;;;;;;;;;;4990276;28;20412;-57
2021/10/15 20:30:33;;;;;;;20.02;17.80;;;;;;;;;;5008213;28;20511;-53
2021/10/15 20:33:00;;;;;;;19.67;17.40;;;;;;;;;;4993492;28;20473;-52
2021/10/15 20:35:26;;;;;;;19.20;17.13;;;;;;;;;;4989516;28;20491;-54
2021/10/15 20:37:54;;;;;;;19.67;16.90;;;;;;;;;;4990470;28;20477;-53
2021/10/15 20:40:21;;;;;;;19.35;17.17;;;;;;;;;;4988410;28;20577;-52
2021/10/15 20:42:47;;;;;;;19.30;17.20;;;;;;;;;;4989700;28;20851;-55
2021/10/15 20:45:13;;;;;;;19.30;17.20;;;;;;;;;;4990466;28;20487;-52
2021/10/15 20:47:44;;;;;;;20.00;17.33;;;;;;;;;;4989295;28;20394;-52
2021/10/15 20:50:10;;;;;;;20.00;17.30;;;;;;;;;;5000150;28;20417;-55
2021/10/15 20:52:37;;;;;;;19.27;16.85;;;;;;;;;;4980448;28;20400;-52
2021/10/15 20:55:03;;;;;;;19.05;16.80;;;;;;;;;;4986174;28;20395;-54
2021/10/15 20:57:30;;;;;;;18.48;16.40;;;;;;;;;;5008529;28;20428;-54
2021/10/15 20:59:56;;;;;;;19.43;17.30;;;;;;;;;;4978521;28;20910;-54
2021/10/15 21:02:22;;;;;;;20.33;17.98;;;;;;;;;;4984597;28;20394;-54
2021/10/15 21:04:49;;;;;;;19.98;17.63;;;;;;;;;;4987803;28;20395;-53
2021/10/15 21:07:15;;;;;;;19.67;17.55;;;;;;;;;;4990094;28;20457;-52
2021/10/15 21:09:41;;;;;;;18.95;16.60;;;;;;;;;;4989311;28;20389;-51
2021/10/15 21:12:07;;;;;;;18.90;16.90;;;;;;;;;;4989574;28;20998;-51
2021/10/15 21:14:36;;;;;;;19.17;17.17;;;;;;;;;;4990197;28;20388;-52
2021/10/15 21:17:02;;;;;;;20.05;17.02;;;;;;;;;;5000145;28;20422;-48
2021/10/15 21:19:28;;;;;;;20.20;15.88;;;;;;;;;;4988004;28;20379;-48
2021/10/15 21:21:54;;;;;;;20.58;16.00;;;;;;;;;;4990162;28;20422;-48
2021/10/15 21:24:21;;;;;;;19.92;15.90;;;;;;;;;;4971825;28;20382;-51
2021/10/15 21:26:47;;;;;;;18.50;15.30;;;;;;;;;;4986159;28;20465;-47
2021/10/15 21:29:13;;;;;;;17.02;14.52;;;;;;;;;;4987875;28;20453;-49
2021/10/15 21:31:39;;;;;;;17.52;14.35;;;;;;;;;;4988640;28;20502;-54
2021/10/15 21:34:05;;;;;;;21.48;14.55;;;;;;;;;;4992991;28;20420;-57
2021/10/15 21:36:31;;;;;;;19.02;14.40;;;;;;;;;;4996185;28;20445;-56
2021/10/15 21:38:57;;;;;;;15.27;13.63;;;;;;;;;;4971185;28;20386;-56
2021/10/15 21:41:24;;;;;;;20.13;13.98;;;;;;;;;;4987229;28;20828;-57
2021/10/15 21:43:50;;;;;;;16.65;13.15;;;;;;;;;;4970991;28;20899;-54
2021/10/15 21:46:16;;;;;;;15.63;13.10;;;;;;;;;;4983208;28;20474;-52
2021/10/15 21:48:42;;;;;;;15.70;12.18;;;;;;;;;;4995152;28;20408;-53
2021/10/15 21:51:11;;;;;;;15.13;12.07;;;;;;;;;;4988585;28;20375;-55
2021/10/15 21:53:37;;;;;;;15.30;12.68;;;;;;;;;;4998055;28;20503;-54
2021/10/15 21:56:04;;;;;;;16.77;12.40;;;;;;;;;;4995685;28;20429;-53
2021/10/15 21:58:30;;;;;;;14.45;12.10;;;;;;;;;;4990983;28;21083;-50
